Muzaffargarh Weather



Muzaffargarh's Current Weather

Temprature 26.01o clear sky

clear sky

Rain: 0 %

Min Temprature26.01o
Max Temprature26.01o
Humidity52
Wind Speed3.8 m/h
Sun Rise05:17:22
Sun Set19:07:02
Current Time: 24-May-2022 07:06:47
Lat/Lon: 30.0754, 71.1921




Muzaffargarh's Geo Location



Muzaffargarh's Weather Forecast

Time Overall Temp Min Temp Max Temp Humidity Wind Speed Rain
24-May-2022 (Tue)
08:00:00 clear sky 26.010 26.010 28.700 49 4.01 m/h 0 %
11:00:00 clear sky 28.950 28.950 34.830 43 4.52 m/h 0 %
14:00:00 clear sky 34.700 34.700 39.050 27 4.14 m/h 0 %
17:00:00 clear sky 39.360 39.360 39.360 13 3.1 m/h 0 %
20:00:00 clear sky 35.040 35.040 35.040 17 3.16 m/h 0 %
23:00:00 clear sky 32.230 32.230 32.230 23 4.79 m/h 0 %
25-May-2022 (Wed)
02:00:00 clear sky 29.560 29.560 29.560 28 2.98 m/h 0 %
05:00:00 clear sky 27.730 27.730 27.730 31 0.83 m/h 0 %
08:00:00 clear sky 33.000 33.000 33.000 23 2.91 m/h 0 %
11:00:00 clear sky 38.710 38.710 38.710 16 3.24 m/h 0 %
14:00:00 clear sky 42.360 42.360 42.360 11 2.84 m/h 0 %
17:00:00 clear sky 43.230 43.230 43.230 10 2.49 m/h 0 %
20:00:00 clear sky 37.960 37.960 37.960 12 2.5 m/h 0 %
23:00:00 clear sky 35.350 35.350 35.350 14 2.38 m/h 0 %
26-May-2022 (Thu)
02:00:00 clear sky 32.950 32.950 32.950 17 3.79 m/h 0 %
05:00:00 clear sky 30.760 30.760 30.760 20 3.88 m/h 0 %
08:00:00 clear sky 36.310 36.310 36.310 17 3.2 m/h 0 %
11:00:00 clear sky 43.250 43.250 43.250 9 3.14 m/h 0 %
14:00:00 clear sky 46.360 46.360 46.360 6 3.46 m/h 0 %
17:00:00 clear sky 46.710 46.710 46.710 5 2.12 m/h 0 %
20:00:00 clear sky 40.120 40.120 40.120 11 3.29 m/h 0 %
23:00:00 few clouds 38.950 38.950 38.950 15 5.37 m/h 0 %
27-May-2022 (Fri)
02:00:00 few clouds 36.430 36.430 36.430 29 9.4 m/h 0 %
05:00:00 clear sky 32.490 32.490 32.490 44 6.58 m/h 0 %
08:00:00 clear sky 35.910 35.910 35.910 35 5.71 m/h 0 %
11:00:00 clear sky 44.780 44.780 44.780 13 3.68 m/h 0 %
14:00:00 clear sky 48.960 48.960 48.960 5 3.24 m/h 0 %
17:00:00 clear sky 49.940 49.940 49.940 2 5.19 m/h 0 %
20:00:00 clear sky 43.780 43.780 43.780 2 7.85 m/h 0 %
23:00:00 clear sky 41.930 41.930 41.930 2 9.37 m/h 0 %
28-May-2022 (Sat)
02:00:00 clear sky 38.570 38.570 38.570 3 7.93 m/h 0 %
05:00:00 clear sky 33.050 33.050 33.050 6 4.47 m/h 0 %
08:00:00 clear sky 41.010 41.010 41.010 4 4.39 m/h 0 %
11:00:00 clear sky 44.800 44.800 44.800 11 6.77 m/h 0 %
14:00:00 clear sky 47.710 47.710 47.710 7 6.93 m/h 0 %
17:00:00 clear sky 47.500 47.500 47.500 5 5.91 m/h 0 %
20:00:00 clear sky 40.860 40.860 40.860 5 2.95 m/h 0 %
23:00:00 clear sky 38.030 38.030 38.030 13 8.64 m/h 0 %
29-May-2022 (Sun)
02:00:00 clear sky 36.650 36.650 36.650 15 8.16 m/h 0 %
05:00:00 clear sky 33.690 33.690 33.690 21 6.75 m/h 0 %

Famous Cities (61)